createdAt,value
2018-08-09T00:00:32.594Z,0.00
2018-08-09T00:01:32.599Z,0.00
2018-08-09T00:02:32.574Z,0.00
2018-08-09T00:03:32.559Z,0.00
2018-08-09T00:04:32.547Z,0.00
2018-08-09T00:05:32.556Z,0.00
2018-08-09T00:06:32.526Z,0.00
2018-08-09T00:07:32.516Z,0.00
2018-08-09T00:08:32.505Z,0.00
2018-08-09T00:09:32.493Z,0.00
2018-08-09T00:10:32.478Z,0.00
2018-08-09T00:11:32.487Z,0.00
2018-08-09T00:12:32.458Z,0.00
2018-08-09T00:13:32.446Z,0.00
2018-08-09T00:14:32.475Z,0.00
2018-08-09T00:15:32.427Z,0.00
2018-08-09T00:16:32.415Z,0.00
2018-08-09T00:17:32.400Z,0.00
2018-08-09T00:18:32.391Z,0.00
2018-08-09T00:19:32.378Z,0.00
2018-08-09T00:20:32.384Z,0.00
2018-08-09T00:21:32.355Z,0.00
2018-08-09T00:22:32.347Z,0.00
2018-08-09T00:23:32.330Z,0.00
2018-08-09T00:24:32.324Z,0.00
2018-08-09T00:25:32.354Z,0.00
2018-08-09T00:26:32.298Z,0.00
2018-08-09T00:27:32.294Z,0.00
2018-08-09T00:28:32.275Z,0.00
2018-08-09T00:29:32.266Z,0.00
2018-08-09T00:30:32.252Z,0.00
2018-08-09T00:31:32.256Z,0.00
2018-08-09T00:32:32.230Z,0.00
2018-08-09T00:33:32.220Z,0.00
2018-08-09T00:34:32.209Z,0.00
2018-08-09T00:35:32.213Z,0.00
2018-08-09T00:36:32.201Z,0.00
2018-08-09T00:37:32.171Z,0.00
2018-08-09T00:38:32.162Z,0.00
2018-08-09T00:39:32.150Z,0.00
2018-08-09T00:40:32.161Z,0.00
2018-08-09T00:41:32.156Z,0.00
2018-08-09T00:42:32.118Z,0.00
2018-08-09T00:43:32.107Z,0.00
2018-08-09T00:44:32.094Z,0.00
2018-08-09T00:45:32.084Z,0.00
2018-08-09T00:46:32.071Z,0.00
2018-08-09T00:47:32.083Z,0.00
2018-08-09T00:48:32.048Z,0.00
2018-08-09T00:49:32.039Z,0.00
2018-08-09T00:50:32.027Z,0.00
2018-08-09T00:51:32.019Z,0.00
2018-08-09T00:52:32.005Z,0.00
2018-08-09T00:53:32.021Z,0.00
2018-08-09T00:54:31.981Z,0.00
2018-08-09T00:55:31.971Z,0.00
2018-08-09T00:56:31.956Z,0.00
2018-08-09T00:57:31.962Z,0.00
2018-08-09T00:58:31.933Z,0.00
2018-08-09T00:59:31.925Z,0.00
2018-08-09T01:00:31.914Z,0.00
2018-08-09T01:01:31.901Z,0.00
2018-08-09T01:02:31.909Z,0.00
2018-08-09T01:03:31.890Z,0.00
2018-08-09T01:04:31.866Z,0.00
2018-08-09T01:05:31.856Z,0.00
2018-08-09T01:06:31.845Z,0.00
2018-08-09T01:07:31.833Z,0.00
2018-08-09T01:08:31.835Z,0.00
2018-08-09T01:09:31.812Z,0.00
2018-08-09T01:10:31.799Z,0.00
2018-08-09T01:11:31.787Z,0.00
2018-08-09T01:12:31.778Z,0.00
2018-08-09T01:13:31.778Z,0.00
2018-08-09T01:14:31.755Z,0.00
2018-08-09T01:15:31.740Z,0.00
2018-08-09T01:16:31.729Z,0.00
2018-08-09T01:17:31.721Z,0.00
2018-08-09T01:18:31.721Z,0.00
2018-08-09T01:19:31.697Z,0.00
2018-08-09T01:20:31.686Z,0.00
2018-08-09T01:21:31.677Z,0.00
2018-08-09T01:22:31.661Z,0.00
2018-08-09T01:23:31.665Z,0.00
2018-08-09T01:24:31.641Z,0.00
2018-08-09T01:25:31.631Z,0.00
2018-08-09T01:26:31.628Z,0.00
2018-08-09T01:27:31.610Z,0.00
2018-08-09T01:28:31.616Z,0.00
2018-08-09T01:29:31.589Z,0.00
2018-08-09T01:30:31.572Z,0.00
2018-08-09T01:31:31.564Z,0.00
2018-08-09T01:32:31.552Z,0.00
2018-08-09T01:33:31.543Z,0.00
2018-08-09T01:34:31.549Z,0.00
2018-08-09T01:35:31.520Z,0.00
2018-08-09T01:36:31.511Z,0.00
2018-08-09T01:37:31.498Z,0.00
2018-08-09T01:38:31.491Z,0.00
2018-08-09T01:39:31.476Z,0.00
2018-08-09T01:40:31.489Z,0.00
2018-08-09T01:41:31.459Z,0.00
2018-08-09T01:42:31.448Z,0.00
2018-08-09T01:43:31.432Z,0.00
2018-08-09T01:44:31.424Z,0.00
2018-08-09T01:45:31.412Z,0.00
2018-08-09T01:46:31.416Z,0.00
2018-08-09T01:47:31.405Z,0.00
2018-08-09T01:48:31.382Z,0.00
2018-08-09T01:49:31.372Z,0.00
2018-08-09T01:50:31.361Z,0.00
2018-08-09T01:51:31.354Z,0.00
2018-08-09T01:52:31.353Z,0.00
2018-08-09T01:53:31.342Z,0.00
2018-08-09T01:54:31.328Z,0.00
2018-08-09T01:55:31.308Z,0.00
2018-08-09T01:56:31.295Z,0.00
2018-08-09T01:57:31.289Z,0.00
2018-08-09T01:58:31.274Z,0.00
2018-08-09T01:59:31.281Z,0.00
2018-08-09T02:00:31.252Z,0.00
2018-08-09T02:01:31.241Z,0.00
2018-08-09T02:02:31.232Z,0.00
2018-08-09T02:03:31.223Z,0.00
2018-08-09T02:04:31.210Z,0.00
2018-08-09T02:05:31.214Z,0.00
2018-08-09T02:06:31.183Z,0.00
2018-08-09T02:07:31.177Z,0.00
2018-08-09T02:08:31.164Z,0.00
2018-08-09T02:09:31.153Z,0.00
2018-08-09T02:10:31.157Z,0.00
2018-08-09T02:11:31.130Z,0.00
2018-08-09T02:12:31.119Z,0.00
2018-08-09T02:13:31.105Z,0.00
2018-08-09T02:14:31.096Z,0.00
2018-08-09T02:15:31.102Z,0.00
2018-08-09T02:16:31.074Z,0.00
2018-08-09T02:17:31.062Z,0.00
2018-08-09T02:18:31.052Z,0.00
2018-08-09T02:19:31.045Z,0.00
2018-08-09T02:20:31.046Z,0.00
2018-08-09T02:21:31.037Z,0.00
2018-08-09T02:22:31.009Z,0.00
2018-08-09T02:23:31.001Z,0.00
2018-08-09T02:24:30.989Z,0.00
2018-08-09T02:25:30.978Z,0.00
2018-08-09T02:26:30.990Z,0.00
2018-08-09T02:27:30.957Z,0.00
2018-08-09T02:28:30.948Z,0.00
2018-08-09T02:29:30.936Z,0.00
2018-08-09T02:30:30.925Z,0.00
2018-08-09T02:31:30.917Z,0.00
2018-08-09T02:32:30.923Z,0.00
2018-08-09T02:33:30.895Z,0.00
2018-08-09T02:34:30.885Z,0.00
2018-08-09T02:35:30.872Z,0.00
2018-08-09T02:36:30.865Z,0.00
2018-08-09T02:37:30.854Z,0.00
2018-08-09T02:38:30.885Z,0.00
2018-08-09T02:39:30.827Z,0.00
2018-08-09T02:40:30.818Z,0.00
2018-08-09T02:41:30.811Z,0.00
2018-08-09T02:42:30.800Z,0.00
2018-08-09T02:43:30.792Z,0.00
2018-08-09T02:44:30.791Z,0.00
2018-08-09T02:45:30.765Z,0.00
2018-08-09T02:46:30.756Z,0.00
2018-08-09T02:47:30.741Z,0.00
2018-08-09T02:48:30.731Z,0.00
2018-08-09T02:49:30.762Z,0.00
2018-08-09T02:50:30.713Z,0.00
2018-08-09T02:51:30.703Z,0.00
2018-08-09T02:52:30.693Z,0.00
2018-08-09T02:53:30.680Z,0.00
2018-08-09T02:54:30.666Z,0.00
2018-08-09T02:55:30.671Z,0.00
2018-08-09T02:56:30.648Z,0.00
2018-08-09T02:57:30.639Z,0.00
2018-08-09T02:58:30.625Z,0.00
2018-08-09T02:59:30.617Z,0.00
2018-08-09T03:00:30.622Z,0.00
2018-08-09T03:01:30.600Z,0.00
2018-08-09T03:02:30.595Z,0.00
2018-08-09T03:03:30.577Z,0.00
2018-08-09T03:04:30.566Z,0.00
2018-08-09T03:05:30.568Z,0.00
2018-08-09T03:06:30.539Z,0.00
2018-08-09T03:07:30.532Z,0.00
2018-08-09T03:08:30.520Z,0.00
2018-08-09T03:09:30.507Z,0.00
2018-08-09T03:10:30.497Z,0.00
2018-08-09T03:11:30.500Z,0.00
2018-08-09T03:12:30.476Z,0.00
2018-08-09T03:13:30.462Z,0.00
2018-08-09T03:14:30.470Z,0.00
2018-08-09T03:15:30.446Z,0.00
2018-08-09T03:16:30.434Z,0.00
2018-08-09T03:17:30.461Z,0.00
2018-08-09T03:18:30.411Z,0.00
2018-08-09T03:19:30.400Z,0.00
2018-08-09T03:20:30.392Z,0.00
2018-08-09T03:21:30.382Z,0.00
2018-08-09T03:22:30.372Z,0.00
2018-08-09T03:23:30.373Z,4.00
2018-08-09T03:24:30.448Z,4.00
2018-08-09T03:25:30.339Z,4.00
2018-08-09T03:26:30.328Z,4.00
2018-08-09T03:27:30.315Z,4.00
2018-08-09T03:28:30.322Z,4.00
2018-08-09T03:29:30.294Z,8.00
2018-08-09T03:30:30.318Z,4.00
2018-08-09T03:31:30.273Z,8.00
2018-08-09T03:32:30.262Z,8.00
2018-08-09T03:33:30.250Z,12.00
2018-08-09T03:34:30.240Z,12.00
2018-08-09T03:35:30.229Z,16.00
2018-08-09T03:36:30.233Z,16.00
2018-08-09T03:37:30.207Z,20.00
2018-08-09T03:38:30.201Z,24.00
2018-08-09T03:39:30.204Z,28.00
2018-08-09T03:40:30.176Z,28.00
2018-08-09T03:41:30.181Z,36.00
2018-08-09T03:42:30.157Z,44.00
2018-08-09T03:43:30.143Z,48.00
2018-08-09T03:44:30.137Z,56.00
2018-08-09T03:45:30.144Z,64.00
2018-08-09T03:46:30.113Z,72.00
2018-08-09T03:47:30.100Z,84.00
2018-08-09T03:48:30.090Z,100.00
2018-08-09T03:49:30.081Z,108.00
2018-08-09T03:50:30.070Z,124.00
2018-08-09T03:51:30.100Z,136.00
2018-08-09T03:52:30.047Z,152.00
2018-08-09T03:53:30.037Z,172.00
2018-08-09T03:54:30.025Z,188.00
2018-08-09T03:55:30.014Z,208.00
2018-08-09T03:56:30.006Z,228.00
2018-08-09T03:57:30.007Z,256.00
2018-08-09T03:58:29.983Z,276.00
2018-08-09T03:59:30.036Z,300.00
2018-08-09T04:00:29.961Z,328.00
2018-08-09T04:01:29.956Z,356.00
2018-08-09T04:02:29.944Z,384.00
2018-08-09T04:03:29.945Z,412.00
2018-08-09T04:04:29.924Z,440.00
2018-08-09T04:05:29.908Z,472.00
2018-08-09T04:06:29.894Z,504.00
2018-08-09T04:07:29.886Z,536.00
2018-08-09T04:08:29.872Z,572.00
2018-08-09T04:09:29.878Z,612.00
2018-08-09T04:10:29.869Z,652.00
2018-08-09T04:11:29.842Z,696.00
2018-08-09T04:12:29.831Z,732.00
2018-08-09T04:13:29.817Z,776.00
2018-08-09T04:14:29.813Z,816.00
2018-08-09T04:15:29.800Z,864.00
2018-08-09T04:16:29.799Z,908.00
2018-08-09T04:17:29.777Z,956.00
2018-08-09T04:18:29.768Z,1004.00
2018-08-09T04:19:29.753Z,1052.00
2018-08-09T04:20:29.743Z,1100.00
2018-08-09T04:21:29.766Z,1148.00
2018-08-09T04:22:29.721Z,1200.00
2018-08-09T04:23:29.709Z,1248.00
2018-08-09T04:24:29.701Z,1300.00
2018-08-09T04:25:29.692Z,1360.00
2018-08-09T04:26:29.712Z,1416.00
2018-08-09T04:27:29.678Z,1472.00
2018-08-09T04:28:29.657Z,1532.00
2018-08-09T04:29:29.648Z,1592.00
2018-08-09T04:30:29.637Z,1648.00
2018-08-09T04:31:29.632Z,1712.00
2018-08-09T04:32:29.625Z,1772.00
2018-08-09T04:33:29.604Z,1836.00
2018-08-09T04:34:29.595Z,1900.00
2018-08-09T04:35:29.582Z,1964.00
2018-08-09T04:36:29.571Z,2036.00
2018-08-09T04:37:29.621Z,2104.00
2018-08-09T04:38:29.553Z,2176.00
2018-08-09T04:39:29.604Z,2248.00
2018-08-09T04:40:29.532Z,2324.00
2018-08-09T04:41:29.522Z,2396.00
2018-08-09T04:42:29.511Z,2464.00
2018-08-09T04:43:29.512Z,2524.00
2018-08-09T04:44:29.491Z,2584.00
2018-08-09T04:45:29.480Z,2648.00
2018-08-09T04:46:29.468Z,2712.00
2018-08-09T04:47:29.461Z,2776.00
2018-08-09T04:48:29.462Z,2844.00
2018-08-09T04:49:29.437Z,2908.00
2018-08-09T04:50:29.427Z,2984.00
2018-08-09T04:51:29.413Z,3052.00
2018-08-09T04:52:29.403Z,3124.00
2018-08-09T04:53:29.430Z,3200.00
2018-08-09T04:54:29.380Z,3288.00
2018-08-09T04:55:29.370Z,3380.00
2018-08-09T04:56:29.361Z,3480.00
2018-08-09T04:57:29.348Z,3576.00
2018-08-09T04:58:29.390Z,3672.00
2018-08-09T04:59:29.340Z,3776.00
2018-08-09T05:00:29.332Z,3888.00
2018-08-09T05:01:29.309Z,3984.00
2018-08-09T05:02:29.299Z,4100.00
2018-08-09T05:03:29.305Z,4240.00
2018-08-09T05:04:29.272Z,4380.00
2018-08-09T05:05:29.263Z,4504.00
2018-08-09T05:06:29.254Z,4640.00
2018-08-09T05:07:29.245Z,4812.00
2018-08-09T05:08:29.233Z,5040.00
2018-08-09T05:09:29.257Z,5372.00
2018-08-09T05:10:29.207Z,5668.00
2018-08-09T05:11:29.196Z,5884.00
2018-08-09T05:12:29.189Z,6072.00
2018-08-09T05:13:29.200Z,6196.00
2018-08-09T05:14:29.170Z,6312.00
2018-08-09T05:15:29.156Z,6484.00
2018-08-09T05:16:29.141Z,6740.00
2018-08-09T05:17:29.129Z,7096.00
2018-08-09T05:18:29.116Z,7492.00
2018-08-09T05:19:29.120Z,7952.00
2018-08-09T05:20:29.097Z,8276.00
2018-08-09T05:21:29.091Z,8228.00
2018-08-09T05:22:29.099Z,7960.00
2018-08-09T05:23:29.060Z,7528.00
2018-08-09T05:24:29.053Z,6972.00
2018-08-09T05:25:29.054Z,6496.00
2018-08-09T05:26:29.071Z,6248.00
2018-08-09T05:27:29.015Z,6408.00
2018-08-09T05:28:29.015Z,6888.00
2018-08-09T05:29:29.014Z,7260.00
2018-08-09T05:30:28.991Z,7552.00
2018-08-09T05:31:28.972Z,7792.00
2018-08-09T05:32:28.962Z,8236.00
2018-08-09T05:33:28.951Z,8388.00
2018-08-09T05:34:28.941Z,8204.00
2018-08-09T05:35:28.938Z,8144.00
2018-08-09T05:36:28.963Z,8316.00
2018-08-09T05:37:28.908Z,8484.00
2018-08-09T05:38:28.913Z,8648.00
2018-08-09T05:39:28.888Z,9204.00
2018-08-09T05:40:28.874Z,10364.00
2018-08-09T05:41:28.886Z,11344.00
2018-08-09T05:42:28.918Z,12016.00
2018-08-09T05:43:28.840Z,12636.00
2018-08-09T05:44:28.837Z,12732.00
2018-08-09T05:45:28.817Z,12364.00
2018-08-09T05:46:28.807Z,12060.00
2018-08-09T05:47:28.854Z,12284.00
2018-08-09T05:48:28.788Z,12672.00
2018-08-09T05:49:28.881Z,12804.00
2018-08-09T05:50:28.766Z,13128.00
2018-08-09T05:51:28.815Z,13736.00
2018-08-09T05:52:28.743Z,14228.00
2018-08-09T05:53:28.747Z,14688.00
2018-08-09T05:54:28.719Z,14672.00
2018-08-09T05:55:28.709Z,14116.00
2018-08-09T05:56:28.699Z,12896.00
2018-08-09T05:57:28.689Z,11428.00
2018-08-09T05:58:28.776Z,10056.00
2018-08-09T05:59:28.666Z,9188.00
2018-08-09T06:00:28.654Z,9184.00
2018-08-09T06:01:28.643Z,9024.00
2018-08-09T06:02:28.638Z,9836.00
2018-08-09T06:03:28.623Z,10648.00
2018-08-09T06:04:28.631Z,10924.00
2018-08-09T06:05:28.659Z,11360.00
2018-08-09T06:06:28.588Z,11164.00
2018-08-09T06:07:28.626Z,10992.00
2018-08-09T06:08:28.567Z,10420.00
2018-08-09T06:09:28.555Z,9624.00
2018-08-09T06:10:28.618Z,8616.00
2018-08-09T06:11:28.631Z,7680.00
2018-08-09T06:12:28.524Z,7016.00
2018-08-09T06:13:28.542Z,6720.00
2018-08-09T06:14:28.503Z,6912.00
2018-08-09T06:15:28.503Z,7260.00
2018-08-09T06:16:28.479Z,7632.00
2018-08-09T06:17:28.565Z,7816.00
2018-08-09T06:18:28.459Z,8080.00
2018-08-09T06:19:28.463Z,8664.00
2018-08-09T06:20:28.433Z,9036.00
2018-08-09T06:21:28.424Z,8928.00
2018-08-09T06:22:28.411Z,8504.00
2018-08-09T06:23:28.400Z,8160.00
2018-08-09T06:24:28.389Z,8144.00
2018-08-09T06:25:28.479Z,8200.00
2018-08-09T06:26:28.581Z,8340.00
2018-08-09T06:27:28.369Z,8420.00
2018-08-09T06:28:28.349Z,8772.00
2018-08-09T06:29:28.338Z,10404.00
2018-08-09T06:30:28.399Z,13004.00
2018-08-09T06:31:28.437Z,15804.00
2018-08-09T06:32:28.316Z,17920.00
2018-08-09T06:33:28.345Z,19776.00
2018-08-09T06:34:28.415Z,21056.00
2018-08-09T06:35:28.269Z,20864.00
2018-08-09T06:36:28.362Z,18080.00
2018-08-09T06:37:28.281Z,20928.00
2018-08-09T06:38:28.363Z,13848.00
2018-08-09T06:39:28.225Z,11072.00
2018-08-09T06:40:28.371Z,9532.00
2018-08-09T06:41:28.208Z,9388.00
2018-08-09T06:42:28.193Z,9612.00
2018-08-09T06:43:28.199Z,10156.00
2018-08-09T06:44:28.275Z,10832.00
2018-08-09T06:45:28.161Z,11900.00
2018-08-09T06:46:28.150Z,13152.00
2018-08-09T06:47:28.141Z,14068.00
2018-08-09T06:48:28.294Z,15368.00
2018-08-09T06:49:28.118Z,15660.00
2018-08-09T06:50:28.112Z,14288.00
2018-08-09T06:51:28.235Z,12040.00
2018-08-09T06:52:28.090Z,10452.00
2018-08-09T06:53:28.116Z,9772.00
2018-08-09T06:54:28.084Z,9464.00
2018-08-09T06:55:28.061Z,9900.00
2018-08-09T06:56:28.044Z,11228.00
2018-08-09T06:57:28.275Z,13276.00
2018-08-09T06:58:28.024Z,14640.00
2018-08-09T06:59:28.013Z,14428.00
2018-08-09T07:00:28.016Z,13000.00
2018-08-09T07:01:27.995Z,11340.00
2018-08-09T07:02:27.982Z,10280.00
2018-08-09T07:03:27.967Z,10108.00
2018-08-09T07:04:27.958Z,10468.00
2018-08-09T07:05:28.085Z,10824.00
2018-08-09T07:06:27.934Z,12000.00
2018-08-09T07:07:27.925Z,14372.00
2018-08-09T07:08:27.916Z,16896.00
2018-08-09T07:09:27.977Z,17600.00
2018-08-09T07:10:27.995Z,16896.00
2018-08-09T07:11:27.904Z,14824.00
2018-08-09T07:12:27.872Z,12556.00
2018-08-09T07:13:27.862Z,10536.00
2018-08-09T07:14:27.849Z,9164.00
2018-08-09T07:15:27.845Z,8420.00
2018-08-09T07:16:27.830Z,7752.00
2018-08-09T07:17:27.829Z,7028.00
2018-08-09T07:18:27.807Z,6472.00
2018-08-09T07:19:27.797Z,6116.00
2018-08-09T07:20:27.890Z,5804.00
2018-08-09T07:21:27.779Z,5392.00
2018-08-09T07:22:27.775Z,4968.00
2018-08-09T07:23:27.757Z,4732.00
2018-08-09T07:24:27.741Z,4624.00
2018-08-09T07:25:27.822Z,4668.00
2018-08-09T07:26:27.792Z,4836.00
2018-08-09T07:27:27.819Z,4992.00
2018-08-09T07:28:27.706Z,5064.00
2018-08-09T07:29:27.687Z,5064.00
2018-08-09T07:30:27.687Z,4952.00
2018-08-09T07:31:27.678Z,4736.00
2018-08-09T07:32:27.654Z,4696.00
2018-08-09T07:33:27.656Z,4864.00
2018-08-09T07:34:27.682Z,5096.00
2018-08-09T07:35:27.621Z,5288.00
2018-08-09T07:36:27.626Z,5320.00
2018-08-09T07:37:27.598Z,5108.00
2018-08-09T07:38:27.588Z,4584.00
2018-08-09T07:39:27.630Z,3908.00
2018-08-09T07:40:27.578Z,3336.00
2018-08-09T07:41:27.596Z,3116.00
2018-08-09T07:42:27.585Z,3320.00
2018-08-09T07:43:27.610Z,3616.00
2018-08-09T07:44:27.520Z,3780.00
2018-08-09T07:45:27.512Z,3884.00
2018-08-09T07:46:27.501Z,4008.00
2018-08-09T07:47:27.487Z,4096.00
2018-08-09T07:48:27.555Z,4128.00
2018-08-09T07:49:27.518Z,4100.00
2018-08-09T07:50:27.454Z,4044.00
2018-08-09T07:51:27.448Z,3940.00
2018-08-09T07:52:27.436Z,3852.00
2018-08-09T07:53:27.426Z,3784.00
2018-08-09T07:54:27.565Z,3756.00
2018-08-09T07:55:27.402Z,3788.00
2018-08-09T07:56:27.395Z,3880.00
2018-08-09T07:57:27.378Z,4060.00
2018-08-09T07:58:27.372Z,4296.00
2018-08-09T07:59:27.361Z,4544.00
2018-08-09T08:00:27.368Z,4764.00
2018-08-09T08:01:27.348Z,4924.00
2018-08-09T08:02:27.326Z,5148.00
2018-08-09T08:03:27.314Z,5548.00
2018-08-09T08:04:27.302Z,6212.00
2018-08-09T08:05:27.292Z,7144.00
2018-08-09T08:06:27.299Z,8184.00
2018-08-09T08:07:27.272Z,9192.00
2018-08-09T08:08:27.325Z,10060.00
2018-08-09T08:09:27.273Z,10940.00
2018-08-09T08:10:27.245Z,12116.00
2018-08-09T08:11:27.228Z,13248.00
2018-08-09T08:12:27.217Z,13776.00
2018-08-09T08:13:27.207Z,13724.00
2018-08-09T08:14:27.198Z,13112.00
2018-08-09T08:15:27.210Z,12340.00
2018-08-09T08:16:27.172Z,11592.00
2018-08-09T08:17:27.161Z,11136.00
2018-08-09T08:18:27.153Z,10612.00
2018-08-09T08:19:27.138Z,10500.00
2018-08-09T08:20:27.128Z,10412.00
2018-08-09T08:21:27.159Z,10444.00
2018-08-09T08:22:27.110Z,10784.00
2018-08-09T08:23:27.096Z,11828.00
2018-08-09T08:24:27.085Z,13472.00
2018-08-09T08:25:27.073Z,14820.00
2018-08-09T08:26:27.064Z,15352.00
2018-08-09T08:27:27.070Z,15360.00
2018-08-09T08:28:27.042Z,15064.00
2018-08-09T08:29:27.036Z,14776.00
2018-08-09T08:30:27.024Z,15284.00
2018-08-09T08:31:27.008Z,17088.00
2018-08-09T08:32:27.017Z,17760.00
2018-08-09T08:33:26.989Z,19072.00
2018-08-09T08:34:27.008Z,21280.00
2018-08-09T08:35:26.969Z,23328.00
2018-08-09T08:36:26.955Z,23712.00
2018-08-09T08:37:26.945Z,22528.00
2018-08-09T08:38:26.948Z,20672.00
2018-08-09T08:39:26.924Z,18848.00
2018-08-09T08:40:26.935Z,17664.00
2018-08-09T08:41:26.983Z,16564.00
2018-08-09T08:42:26.895Z,16452.00
2018-08-09T08:43:26.882Z,17088.00
2018-08-09T08:44:26.909Z,18368.00
2018-08-09T08:45:26.874Z,19456.00
2018-08-09T08:46:26.860Z,20096.00
2018-08-09T08:47:26.860Z,20768.00
2018-08-09T08:48:26.827Z,21728.00
2018-08-09T08:49:26.828Z,22752.00
2018-08-09T08:50:26.804Z,24672.00
2018-08-09T08:51:26.812Z,26688.00
2018-08-09T08:52:26.786Z,28672.00
2018-08-09T08:53:26.768Z,25920.00
2018-08-09T08:54:26.758Z,23776.00
2018-08-09T08:55:26.747Z,23072.00
2018-08-09T08:56:26.739Z,22656.00
2018-08-09T08:57:26.739Z,22688.00
2018-08-09T08:58:26.715Z,22432.00
2018-08-09T08:59:26.705Z,21408.00
2018-08-09T09:00:26.695Z,20288.00
2018-08-09T09:01:26.700Z,20288.00
2018-08-09T09:02:26.670Z,21088.00
2018-08-09T09:03:26.664Z,21088.00
2018-08-09T09:04:26.681Z,20416.00
2018-08-09T09:05:26.667Z,19168.00
2018-08-09T09:06:26.628Z,17696.00
2018-08-09T09:07:26.616Z,16084.00
2018-08-09T09:08:26.615Z,14960.00
2018-08-09T09:09:26.595Z,14656.00
2018-08-09T09:10:26.607Z,15520.00
2018-08-09T09:11:26.572Z,16496.00
2018-08-09T09:12:26.560Z,17056.00
2018-08-09T09:13:26.555Z,16800.00
2018-08-09T09:14:26.541Z,16120.00
2018-08-09T09:15:26.527Z,15888.00
2018-08-09T09:16:26.536Z,15696.00
2018-08-09T09:17:26.508Z,15608.00
2018-08-09T09:18:26.495Z,16068.00
2018-08-09T09:19:26.484Z,16608.00
2018-08-09T09:20:26.482Z,17024.00
2018-08-09T09:21:26.475Z,17568.00
2018-08-09T09:22:26.449Z,18496.00
2018-08-09T09:23:26.441Z,19136.00
2018-08-09T09:24:26.431Z,19296.00
2018-08-09T09:25:26.417Z,18752.00
2018-08-09T09:26:26.423Z,17888.00
2018-08-09T09:27:26.400Z,17088.00
2018-08-09T09:28:26.384Z,15628.00
2018-08-09T09:29:26.375Z,14304.00
2018-08-09T09:30:26.364Z,13504.00
2018-08-09T09:31:26.377Z,13108.00
2018-08-09T09:32:26.340Z,12736.00
2018-08-09T09:33:26.332Z,13188.00
2018-08-09T09:34:26.321Z,15652.00
2018-08-09T09:35:26.310Z,20000.00
2018-08-09T09:36:26.298Z,23424.00
2018-08-09T09:37:26.302Z,24448.00
2018-08-09T09:38:26.280Z,22976.00
2018-08-09T09:39:26.267Z,20768.00
2018-08-09T09:40:26.256Z,19424.00
2018-08-09T09:41:26.311Z,18752.00
2018-08-09T09:42:26.248Z,19680.00
2018-08-09T09:43:26.237Z,16240.00
2018-08-09T09:44:26.210Z,12940.00
2018-08-09T09:45:26.201Z,11220.00
2018-08-09T09:46:26.190Z,10272.00
2018-08-09T09:47:26.176Z,9432.00
2018-08-09T09:48:26.189Z,9168.00
2018-08-09T09:49:26.156Z,9264.00
2018-08-09T09:50:26.147Z,9700.00
2018-08-09T09:51:26.133Z,10060.00
2018-08-09T09:52:26.123Z,10032.00
2018-08-09T09:53:26.113Z,9808.00
2018-08-09T09:54:26.124Z,9356.00
2018-08-09T09:55:26.092Z,8980.00
2018-08-09T09:56:26.079Z,8892.00
2018-08-09T09:57:26.071Z,9052.00
2018-08-09T09:58:26.057Z,9392.00
2018-08-09T09:59:26.047Z,9992.00
2018-08-09T10:00:26.052Z,11252.00
2018-08-09T10:01:26.031Z,13384.00
2018-08-09T10:02:26.020Z,16384.00
2018-08-09T10:03:26.004Z,20064.00
2018-08-09T10:04:26.006Z,24288.00
2018-08-09T10:05:26.009Z,27552.00
2018-08-09T10:06:25.973Z,30208.00
2018-08-09T10:07:26.014Z,32576.00
2018-08-09T10:08:25.950Z,34528.00
2018-08-09T10:09:25.940Z,38784.00
2018-08-09T10:10:25.973Z,49408.00
2018-08-09T10:11:25.928Z,50496.00
2018-08-09T10:12:25.906Z,40960.00
2018-08-09T10:13:25.893Z,32704.00
2018-08-09T10:14:26.056Z,26624.00
2018-08-09T10:15:25.873Z,23392.00
2018-08-09T10:16:25.862Z,22624.00
2018-08-09T10:17:25.850Z,23680.00
2018-08-09T10:18:25.843Z,25728.00
2018-08-09T10:19:25.831Z,28480.00
2018-08-09T10:20:25.837Z,32000.00
2018-08-09T10:21:25.814Z,35776.00
2018-08-09T10:22:25.800Z,39040.00
2018-08-09T10:23:25.789Z,42304.00
2018-08-09T10:24:25.776Z,42048.00
2018-08-09T10:25:25.804Z,41664.00
2018-08-09T10:26:25.754Z,43616.00
2018-08-09T10:27:25.746Z,44128.00
2018-08-09T10:28:25.734Z,46144.00
2018-08-09T10:29:25.720Z,78112.00
2018-08-09T10:30:25.710Z,63136.00
2018-08-09T10:31:25.717Z,60832.00
2018-08-09T10:32:25.687Z,59232.00
2018-08-09T10:33:25.678Z,52160.00
2018-08-09T10:34:25.668Z,51616.00
2018-08-09T10:35:25.740Z,93664.00
2018-08-09T10:36:25.648Z,73024.00
2018-08-09T10:37:25.637Z,129440.00
2018-08-09T10:38:25.627Z,118720.00
2018-08-09T10:39:25.617Z,73856.00
2018-08-09T10:40:25.607Z,54848.00
2018-08-09T10:41:25.607Z,76064.00
2018-08-09T10:42:25.605Z,56928.00
2018-08-09T10:43:25.572Z,85088.00
2018-08-09T10:44:25.563Z,69280.00
2018-08-09T10:45:25.553Z,93536.00
2018-08-09T10:46:25.543Z,121120.00
2018-08-09T10:47:25.537Z,122400.00
2018-08-09T10:48:25.537Z,68224.00
2018-08-09T10:49:25.509Z,52832.00
2018-08-09T10:50:25.501Z,50496.00
2018-08-09T10:51:25.491Z,47264.00
2018-08-09T10:52:25.490Z,84000.00
2018-08-09T10:53:25.469Z,65344.00
2018-08-09T10:54:25.458Z,88320.00
2018-08-09T10:55:25.447Z,60896.00
2018-08-09T10:56:25.437Z,115680.00
2018-08-09T10:57:25.458Z,116576.00
2018-08-09T10:58:25.416Z,115296.00
2018-08-09T10:59:25.418Z,84096.00
2018-08-09T11:00:25.396Z,89536.00
2018-08-09T11:01:25.388Z,103488.00
2018-08-09T11:02:25.377Z,101056.00
2018-08-09T11:03:25.383Z,99296.00
2018-08-09T11:04:25.357Z,99072.00
2018-08-09T11:05:25.346Z,102176.00
2018-08-09T11:06:25.338Z,101120.00
2018-08-09T11:07:25.327Z,103200.00
2018-08-09T11:08:25.347Z,102528.00
2018-08-09T11:09:25.304Z,99648.00
2018-08-09T11:10:25.295Z,101344.00
2018-08-09T11:11:25.284Z,99072.00
2018-08-09T11:12:25.271Z,100896.00
2018-08-09T11:13:25.264Z,102272.00
2018-08-09T11:14:25.269Z,100672.00
2018-08-09T11:15:25.244Z,99520.00
2018-08-09T11:16:25.236Z,100320.00
2018-08-09T11:17:25.231Z,100544.00
2018-08-09T11:18:25.231Z,101376.00
2018-08-09T11:19:25.223Z,104736.00
2018-08-09T11:20:25.202Z,101536.00
2018-08-09T11:21:25.181Z,102080.00
2018-08-09T11:22:25.176Z,102144.00
2018-08-09T11:23:25.162Z,102464.00
2018-08-09T11:24:25.179Z,59520.00
2018-08-09T11:25:25.143Z,74848.00
2018-08-09T11:26:25.132Z,72384.00
2018-08-09T11:27:25.126Z,51456.00
2018-08-09T11:28:25.113Z,63872.00
2018-08-09T11:29:25.100Z,90240.00
2018-08-09T11:30:25.117Z,50624.00
2018-08-09T11:31:25.081Z,48160.00
2018-08-09T11:32:25.069Z,45120.00
2018-08-09T11:33:25.063Z,44736.00
2018-08-09T11:34:25.054Z,52288.00
2018-08-09T11:35:25.076Z,41248.00
2018-08-09T11:36:25.029Z,38272.00
2018-08-09T11:37:25.020Z,41120.00
2018-08-09T11:38:25.010Z,45248.00
2018-08-09T11:39:24.998Z,62752.00
2018-08-09T11:40:24.990Z,55104.00
2018-08-09T11:41:24.994Z,85184.00
2018-08-09T11:42:24.980Z,58560.00
2018-08-09T11:43:24.958Z,102304.00
2018-08-09T11:44:24.946Z,92672.00
2018-08-09T11:45:24.952Z,63680.00
2018-08-09T11:46:24.941Z,89920.00
2018-08-09T11:47:24.918Z,116160.00
2018-08-09T11:48:24.904Z,82752.00
2018-08-09T11:49:24.943Z,82240.00
2018-08-09T11:50:24.901Z,51776.00
2018-08-09T11:51:24.873Z,112800.00
2018-08-09T11:52:24.881Z,45312.00
2018-08-09T11:53:24.858Z,78848.00
2018-08-09T11:54:24.847Z,38688.00
2018-08-09T11:55:24.833Z,112256.00
2018-08-09T11:56:24.887Z,111648.00
2018-08-09T11:57:24.813Z,77152.00
2018-08-09T11:58:24.819Z,111136.00
2018-08-09T11:59:24.836Z,109632.00
2018-08-09T12:00:24.847Z,108672.00
2018-08-09T12:01:24.821Z,93152.00
2018-08-09T12:02:24.765Z,37568.00
2018-08-09T12:03:24.759Z,33760.00
2018-08-09T12:04:24.768Z,51424.00
2018-08-09T12:05:24.732Z,102176.00
2018-08-09T12:06:24.724Z,43648.00
2018-08-09T12:07:24.773Z,104224.00
2018-08-09T12:08:24.704Z,101120.00
2018-08-09T12:09:24.722Z,100960.00
2018-08-09T12:10:24.703Z,99424.00
2018-08-09T12:11:24.672Z,98112.00
2018-08-09T12:12:24.659Z,97056.00
2018-08-09T12:13:24.664Z,97184.00
2018-08-09T12:14:24.645Z,96640.00
2018-08-09T12:15:24.693Z,92352.00
2018-08-09T12:16:31.662Z,92672.00